Time;durP1;ratioP1;P1;durP2;ratioP2;P2;SDS_P1;SDS_P2;PMS_P1;PMS_P2;Temp;Humidity;BMP_temperature;BMP_pressure;BME280_temperature;BME280_humidity;BME280_pressure;Samples;Min_cycle;Max_cycle;Signal;HPM_P1;HPM_P2
2024/04/07 00:00:26;;;;;;;23.90;19.50;;;;;;;;;;5105451;28;20016;-42
2024/04/07 00:02:53;;;;;;;28.73;18.45;;;;;;;;;;5105359;28;20028;-39
2024/04/07 00:05:20;;;;;;;21.10;17.38;;;;;;;;;;5105432;28;20079;-45
2024/04/07 00:07:47;;;;;;;24.13;17.33;;;;;;;;;;5105378;28;20020;-40
2024/04/07 00:10:13;;;;;;;20.92;15.95;;;;;;;;;;5105135;28;20020;-45
2024/04/07 00:12:40;;;;;;;19.67;16.58;;;;;;;;;;5105407;28;20024;-38
2024/04/07 00:15:07;;;;;;;24.35;16.02;;;;;;;;;;5105344;28;20023;-47
2024/04/07 00:17:34;;;;;;;23.52;15.35;;;;;;;;;;5105474;28;20032;-46
2024/04/07 00:20:01;;;;;;;19.73;15.13;;;;;;;;;;5105276;28;20043;-39
2024/04/07 00:22:27;;;;;;;22.08;15.55;;;;;;;;;;5105643;28;20020;-42
2024/04/07 00:24:56;;;;;;;19.23;14.60;;;;;;;;;;5102868;28;20027;-42
2024/04/07 00:27:23;;;;;;;28.00;15.68;;;;;;;;;;5094662;28;20208;-39
2024/04/07 00:29:51;;;;;;;19.63;15.05;;;;;;;;;;5105145;28;20020;-37
2024/04/07 00:32:17;;;;;;;19.13;14.30;;;;;;;;;;5104125;28;20079;-38
2024/04/07 00:34:48;;;;;;;18.52;14.00;;;;;;;;;;5099722;28;20020;-40
2024/04/07 00:37:15;;;;;;;20.98;15.13;;;;;;;;;;5105151;28;20036;-47
2024/04/07 00:39:45;;;;;;;19.50;13.52;;;;;;;;;;5104421;28;20016;-45
2024/04/07 00:42:11;;;;;;;20.58;14.07;;;;;;;;;;5105313;28;20087;-45
2024/04/07 00:44:39;;;;;;;24.55;14.55;;;;;;;;;;5104805;28;20312;-44
2024/04/07 00:47:06;;;;;;;22.67;14.20;;;;;;;;;;5104480;28;20059;-49
2024/04/07 00:49:34;;;;;;;23.33;15.52;;;;;;;;;;5103521;28;20334;-46
2024/04/07 00:52:01;;;;;;;25.52;15.43;;;;;;;;;;5104840;28;20036;-49
2024/04/07 00:54:28;;;;;;;25.35;15.68;;;;;;;;;;5104522;28;20096;-40
2024/04/07 00:56:54;;;;;;;21.75;14.07;;;;;;;;;;5105047;28;20039;-42
2024/04/07 00:59:21;;;;;;;20.75;14.38;;;;;;;;;;5096239;28;20050;-52
2024/04/07 01:01:48;;;;;;;16.80;12.95;;;;;;;;;;5089992;28;20220;-39
2024/04/07 01:04:14;;;;;;;22.60;14.10;;;;;;;;;;5084619;28;20250;-48
2024/04/07 01:06:41;;;;;;;22.92;14.15;;;;;;;;;;5104454;28;20043;-46
2024/04/07 01:09:09;;;;;;;20.55;13.77;;;;;;;;;;5104335;28;20028;-45
2024/04/07 01:11:36;;;;;;;21.08;13.40;;;;;;;;;;5104722;28;20077;-48
2024/04/07 01:14:03;;;;;;;17.63;12.90;;;;;;;;;;5104479;28;20027;-48
2024/04/07 01:16:30;;;;;;;27.05;14.00;;;;;;;;;;5097876;28;20074;-45
2024/04/07 01:18:57;;;;;;;20.52;13.13;;;;;;;;;;5086357;28;20208;-41
2024/04/07 01:21:24;;;;;;;19.95;13.63;;;;;;;;;;5101553;28;20024;-44
2024/04/07 01:23:50;;;;;;;23.13;13.40;;;;;;;;;;5102634;28;20053;-40
2024/04/07 01:26:17;;;;;;;24.63;13.75;;;;;;;;;;5104634;28;20031;-42
2024/04/07 01:28:43;;;;;;;20.20;12.60;;;;;;;;;;5104147;28;20016;-47
2024/04/07 01:31:10;;;;;;;23.58;13.60;;;;;;;;;;5091769;28;20035;-44
2024/04/07 01:33:37;;;;;;;19.83;13.73;;;;;;;;;;5099046;28;20092;-39
2024/04/07 01:36:03;;;;;;;24.08;14.30;;;;;;;;;;5102425;28;20028;-52
2024/04/07 01:38:30;;;;;;;21.05;14.45;;;;;;;;;;5102143;28;20169;-44
2024/04/07 01:40:57;;;;;;;19.45;13.15;;;;;;;;;;5095586;28;20296;-51
2024/04/07 01:43:23;;;;;;;16.70;12.52;;;;;;;;;;5104095;28;20047;-53
2024/04/07 01:45:50;;;;;;;16.58;11.43;;;;;;;;;;5103622;28;20020;-48
2024/04/07 01:48:16;;;;;;;18.27;11.07;;;;;;;;;;5097783;28;20099;-56
2024/04/07 01:50:43;;;;;;;18.08;11.25;;;;;;;;;;5103911;28;20032;-50
2024/04/07 01:53:09;;;;;;;18.88;11.57;;;;;;;;;;5103977;28;20024;-48
2024/04/07 01:55:36;;;;;;;17.60;11.73;;;;;;;;;;5104000;28;20024;-51
2024/04/07 01:58:03;;;;;;;16.30;10.55;;;;;;;;;;5103642;28;20023;-43
2024/04/07 02:00:30;;;;;;;16.08;10.63;;;;;;;;;;5103691;28;20039;-45
2024/04/07 02:02:56;;;;;;;16.65;10.20;;;;;;;;;;5103803;28;20032;-45
2024/04/07 02:05:23;;;;;;;16.08;10.45;;;;;;;;;;5103696;28;20134;-44
2024/04/07 02:07:50;;;;;;;17.15;10.63;;;;;;;;;;5102035;28;20209;-42
2024/04/07 02:10:16;;;;;;;13.88;10.27;;;;;;;;;;5102469;28;20244;-45
2024/04/07 02:12:43;;;;;;;15.10;10.15;;;;;;;;;;5102395;28;20024;-52
2024/04/07 02:15:09;;;;;;;13.95;9.73;;;;;;;;;;5102612;28;20079;-44
2024/04/07 02:17:36;;;;;;;16.48;10.43;;;;;;;;;;5103087;28;20027;-50
2024/04/07 02:20:04;;;;;;;16.42;9.55;;;;;;;;;;5106439;28;20020;-48
2024/04/07 02:22:30;;;;;;;18.48;9.93;;;;;;;;;;5107949;28;20031;-43
2024/04/07 02:24:57;;;;;;;15.63;10.23;;;;;;;;;;5107214;28;20016;-48
2024/04/07 02:27:24;;;;;;;17.80;10.05;;;;;;;;;;5107919;28;20031;-47
2024/04/07 02:29:50;;;;;;;15.98;9.60;;;;;;;;;;5107411;28;20371;-43
2024/04/07 02:32:17;;;;;;;20.67;10.50;;;;;;;;;;5107120;28;20334;-45
2024/04/07 02:34:46;;;;;;;13.73;10.18;;;;;;;;;;5107569;28;20250;-44
2024/04/07 02:37:12;;;;;;;17.45;10.40;;;;;;;;;;5107596;28;20036;-40
2024/04/07 02:39:39;;;;;;;15.48;10.27;;;;;;;;;;5106943;28;20376;-50
2024/04/07 02:42:05;;;;;;;17.02;9.60;;;;;;;;;;5107480;28;20027;-42
2024/04/07 02:50:02;;;;;;;18.92;9.23;;;;;;;;;;5106925;28;20042;-46
2024/04/07 02:52:29;;;;;;;15.07;9.55;;;;;;;;;;5105900;28;20028;-47
2024/04/07 02:54:55;;;;;;;13.75;9.73;;;;;;;;;;5106931;28;20016;-44
2024/04/07 02:57:22;;;;;;;17.33;9.77;;;;;;;;;;5107120;28;20205;-48
2024/04/07 02:59:48;;;;;;;19.27;10.13;;;;;;;;;;5107006;28;20212;-45
2024/04/07 03:02:15;;;;;;;18.88;9.93;;;;;;;;;;5107090;28;20020;-52
2024/04/07 03:04:41;;;;;;;15.80;9.35;;;;;;;;;;5106663;28;20016;-44
2024/04/07 03:07:08;;;;;;;12.93;9.80;;;;;;;;;;5107131;28;20039;-44
2024/04/07 03:09:35;;;;;;;19.83;9.80;;;;;;;;;;5106692;28;20030;-53
2024/04/07 03:12:01;;;;;;;14.93;8.50;;;;;;;;;;5106874;28;20028;-46
2024/04/07 03:14:28;;;;;;;16.02;9.00;;;;;;;;;;5106440;28;20083;-46
2024/04/07 03:16:54;;;;;;;17.25;8.18;;;;;;;;;;5106405;28;20024;-51
2024/04/07 03:19:21;;;;;;;13.68;9.30;;;;;;;;;;5106659;28;20020;-47
2024/04/07 03:21:48;;;;;;;15.82;9.43;;;;;;;;;;5106449;28;20016;-52
2024/04/07 03:24:15;;;;;;;21.55;9.27;;;;;;;;;;5106393;28;20323;-48
2024/04/07 03:26:41;;;;;;;17.25;9.25;;;;;;;;;;5106495;28;20299;-54
2024/04/07 03:29:08;;;;;;;18.65;9.65;;;;;;;;;;5105792;28;20242;-46
2024/04/07 03:31:34;;;;;;;15.68;8.90;;;;;;;;;;5106394;28;20283;-46
2024/04/07 03:34:01;;;;;;;16.40;9.70;;;;;;;;;;5106369;28;20246;-47
2024/04/07 03:36:28;;;;;;;14.95;9.55;;;;;;;;;;5105949;28;20024;-48
2024/04/07 03:38:54;;;;;;;14.15;9.05;;;;;;;;;;5105946;28;20024;-47
2024/04/07 03:41:21;;;;;;;16.15;9.95;;;;;;;;;;5106207;28;20031;-46
2024/04/07 03:43:47;;;;;;;18.75;10.50;;;;;;;;;;5105828;28;20020;-48
2024/04/07 03:46:14;;;;;;;17.45;10.32;;;;;;;;;;5105865;28;20040;-51
2024/04/07 03:48:41;;;;;;;16.35;9.90;;;;;;;;;;5105906;28;20324;-52
2024/04/07 03:51:08;;;;;;;19.88;10.32;;;;;;;;;;5105833;28;20185;-54
2024/04/07 03:53:35;;;;;;;15.63;10.02;;;;;;;;;;5105659;28;20024;-46
2024/04/07 03:56:02;;;;;;;14.63;9.77;;;;;;;;;;5105814;28;20040;-50
2024/04/07 03:58:29;;;;;;;16.52;8.82;;;;;;;;;;5105403;28;20181;-54
2024/04/07 04:01:00;;;;;;;16.00;8.88;;;;;;;;;;5105606;28;20024;-47
2024/04/07 04:03:27;;;;;;;12.30;8.38;;;;;;;;;;5105575;28;20081;-48
2024/04/07 04:05:57;;;;;;;14.10;8.50;;;;;;;;;;5105470;28;20024;-44
2024/04/07 04:08:24;;;;;;;12.85;7.97;;;;;;;;;;5105473;28;20047;-47
2024/04/07 04:10:50;;;;;;;13.15;8.27;;;;;;;;;;5105668;28;20020;-48
2024/04/07 04:13:17;;;;;;;12.93;7.10;;;;;;;;;;5105355;28;20020;-53
2024/04/07 04:15:45;;;;;;;11.98;7.45;;;;;;;;;;5105551;28;20020;-58
2024/04/07 04:18:12;;;;;;;12.00;7.95;;;;;;;;;;5105334;28;20330;-47
2024/04/07 04:20:39;;;;;;;16.65;7.85;;;;;;;;;;5105194;28;20125;-47
2024/04/07 04:23:07;;;;;;;16.73;7.80;;;;;;;;;;5105577;28;20268;-50
2024/04/07 04:25:34;;;;;;;10.40;7.63;;;;;;;;;;5105210;28;20024;-47
2024/04/07 04:28:01;;;;;;;10.63;7.38;;;;;;;;;;5105065;28;20047;-57
2024/04/07 04:30:28;;;;;;;10.88;7.35;;;;;;;;;;5105062;28;20030;-50
2024/04/07 04:32:54;;;;;;;13.90;7.20;;;;;;;;;;5105041;28;20031;-47
2024/04/07 04:35:21;;;;;;;11.75;7.72;;;;;;;;;;5104912;28;20123;-47
2024/04/07 04:37:47;;;;;;;11.98;6.97;;;;;;;;;;5104956;28;20031;-50
2024/04/07 04:40:14;;;;;;;10.80;6.63;;;;;;;;;;5104969;28;20020;-52
2024/04/07 04:42:40;;;;;;;13.98;6.78;;;;;;;;;;5104356;28;20027;-49
2024/04/07 04:45:07;;;;;;;13.15;7.18;;;;;;;;;;5104817;28;20327;-50
2024/04/07 04:47:34;;;;;;;11.32;6.80;;;;;;;;;;5104659;28;20044;-51
2024/04/07 04:50:02;;;;;;;12.93;6.93;;;;;;;;;;5104700;28;20258;-49
2024/04/07 04:52:31;;;;;;;13.52;6.50;;;;;;;;;;5105296;28;20028;-46
2024/04/07 04:54:58;;;;;;;16.98;6.88;;;;;;;;;;5104796;28;20031;-45
2024/04/07 04:57:25;;;;;;;11.68;6.68;;;;;;;;;;5104913;28;20092;-45
2024/04/07 04:59:54;;;;;;;10.60;6.85;;;;;;;;;;5104704;28;20023;-46
2024/04/07 05:02:21;;;;;;;13.32;6.80;;;;;;;;;;5104963;28;20027;-48
2024/04/07 05:04:47;;;;;;;11.35;6.70;;;;;;;;;;5104462;28;20024;-45
2024/04/07 05:07:14;;;;;;;15.88;7.00;;;;;;;;;;5105009;28;20023;-49
2024/04/07 05:09:41;;;;;;;12.30;6.90;;;;;;;;;;5104424;28;20209;-48
2024/04/07 05:12:08;;;;;;;12.48;6.85;;;;;;;;;;5104680;28;20030;-46
2024/04/07 05:14:34;;;;;;;12.43;6.57;;;;;;;;;;5104333;28;20020;-45
2024/04/07 05:17:01;;;;;;;9.18;6.57;;;;;;;;;;5104731;28;20065;-45
2024/04/07 05:19:27;;;;;;;10.38;6.53;;;;;;;;;;5104222;28;20030;-52
2024/04/07 05:21:54;;;;;;;11.65;6.15;;;;;;;;;;5104770;28;20027;-46
2024/04/07 05:24:21;;;;;;;15.40;6.60;;;;;;;;;;5104312;28;20016;-49
2024/04/07 05:26:48;;;;;;;11.05;6.55;;;;;;;;;;5104355;28;20069;-45
2024/04/07 05:29:15;;;;;;;12.45;6.22;;;;;;;;;;5104414;28;20117;-43
2024/04/07 05:31:42;;;;;;;13.43;6.30;;;;;;;;;;5104577;28;20052;-42
2024/04/07 05:34:08;;;;;;;11.75;6.40;;;;;;;;;;5104012;28;20031;-45
2024/04/07 05:36:35;;;;;;;10.43;6.43;;;;;;;;;;5104139;28;20043;-43
2024/04/07 05:39:01;;;;;;;11.35;6.32;;;;;;;;;;5104023;28;20046;-40
2024/04/07 05:41:28;;;;;;;12.32;6.47;;;;;;;;;;5104337;28;20024;-39
2024/04/07 05:43:54;;;;;;;9.55;6.30;;;;;;;;;;5103976;28;20024;-44
2024/04/07 05:46:21;;;;;;;12.63;6.22;;;;;;;;;;5103972;28;20036;-43
2024/04/07 05:48:48;;;;;;;10.07;6.40;;;;;;;;;;5104053;28;20035;-45
2024/04/07 05:51:15;;;;;;;13.30;6.45;;;;;;;;;;5104082;28;20023;-42
2024/04/07 05:53:42;;;;;;;11.50;6.50;;;;;;;;;;5106571;28;20028;-42
2024/04/07 05:56:12;;;;;;;12.27;6.22;;;;;;;;;;5108179;28;20028;-47
2024/04/07 05:58:40;;;;;;;11.80;6.30;;;;;;;;;;5108314;28;20066;-42
2024/04/07 06:01:06;;;;;;;9.90;6.57;;;;;;;;;;5108286;28;20016;-43
2024/04/07 06:03:33;;;;;;;9.85;6.20;;;;;;;;;;5107965;28;20047;-39
2024/04/07 06:06:02;;;;;;;10.82;6.03;;;;;;;;;;5107852;28;20058;-39
2024/04/07 06:08:28;;;;;;;12.15;6.57;;;;;;;;;;5107930;28;20015;-41
2024/04/07 06:10:55;;;;;;;9.30;6.22;;;;;;;;;;5107938;28;20020;-42
2024/04/07 06:13:22;;;;;;;11.73;6.75;;;;;;;;;;5107699;28;20040;-46
2024/04/07 06:15:48;;;;;;;12.45;6.55;;;;;;;;;;5107738;28;20024;-48
2024/04/07 06:18:15;;;;;;;13.43;6.47;;;;;;;;;;5107805;28;20031;-44
2024/04/07 06:20:43;;;;;;;10.68;6.15;;;;;;;;;;5107540;28;20016;-40
2024/04/07 06:23:09;;;;;;;10.23;6.78;;;;;;;;;;5107653;28;20079;-45
2024/04/07 06:25:36;;;;;;;9.40;6.10;;;;;;;;;;5107818;28;20057;-40
2024/04/07 06:28:03;;;;;;;12.02;6.93;;;;;;;;;;5107330;28;20020;-46
2024/04/07 06:30:29;;;;;;;9.30;6.10;;;;;;;;;;5107346;28;20032;-49
2024/04/07 06:32:56;;;;;;;12.20;6.43;;;;;;;;;;5107572;28;20019;-45
2024/04/07 06:35:22;;;;;;;13.48;6.55;;;;;;;;;;5107267;28;20046;-50
2024/04/07 06:37:49;;;;;;;15.73;7.00;;;;;;;;;;5107315;28;20027;-50
2024/04/07 06:40:16;;;;;;;9.95;6.10;;;;;;;;;;5107282;28;20020;-47
2024/04/07 06:42:42;;;;;;;9.40;5.70;;;;;;;;;;5107042;28;20020;-47
2024/04/07 06:45:09;;;;;;;11.05;6.55;;;;;;;;;;5107276;28;20039;-46
2024/04/07 06:47:35;;;;;;;12.45;6.80;;;;;;;;;;5106991;28;20260;-46
2024/04/07 06:50:02;;;;;;;9.45;6.30;;;;;;;;;;5107051;28;20046;-45
2024/04/07 06:52:29;;;;;;;14.20;7.25;;;;;;;;;;5107610;28;20032;-47
2024/04/07 06:54:55;;;;;;;9.25;6.45;;;;;;;;;;5107128;28;20089;-52
2024/04/07 06:57:22;;;;;;;12.75;6.88;;;;;;;;;;5107276;28;20020;-49
2024/04/07 06:59:52;;;;;;;9.32;6.25;;;;;;;;;;5107375;28;20075;-47
2024/04/07 07:02:19;;;;;;;12.13;6.93;;;;;;;;;;5107393;28;20034;-40
2024/04/07 07:04:47;;;;;;;9.25;6.82;;;;;;;;;;5105908;28;20020;-43
2024/04/07 07:07:14;;;;;;;14.23;6.65;;;;;;;;;;5107254;28;20069;-46
2024/04/07 07:09:40;;;;;;;14.07;7.13;;;;;;;;;;5106832;28;20312;-47
2024/04/07 07:12:07;;;;;;;11.60;6.78;;;;;;;;;;5107006;28;20257;-44
2024/04/07 07:14:34;;;;;;;12.50;6.55;;;;;;;;;;5106906;28;20031;-41
2024/04/07 07:17:00;;;;;;;10.57;6.55;;;;;;;;;;5106519;28;20028;-42
2024/04/07 07:19:27;;;;;;;12.63;6.63;;;;;;;;;;5106400;28;20027;-46
2024/04/07 07:21:53;;;;;;;11.20;6.70;;;;;;;;;;5106940;28;20058;-45
2024/04/07 07:24:20;;;;;;;14.18;6.88;;;;;;;;;;5106435;28;20050;-46
2024/04/07 07:26:46;;;;;;;13.30;6.95;;;;;;;;;;5106659;28;20027;-51
2024/04/07 07:29:13;;;;;;;14.55;7.35;;;;;;;;;;5106469;28;20141;-43
2024/04/07 07:31:39;;;;;;;13.80;6.97;;;;;;;;;;5106526;28;20043;-43
2024/04/07 07:34:08;;;;;;;11.80;6.60;;;;;;;;;;5106294;28;20024;-38
2024/04/07 07:36:34;;;;;;;10.93;6.97;;;;;;;;;;5106219;28;20040;-40
2024/04/07 07:39:01;;;;;;;15.20;7.00;;;;;;;;;;5106297;28;20020;-39
2024/04/07 07:41:28;;;;;;;12.82;6.55;;;;;;;;;;5106523;28;20228;-42
2024/04/07 07:43:54;;;;;;;10.05;6.28;;;;;;;;;;5106294;28;20036;-42
2024/04/07 07:46:21;;;;;;;12.38;6.72;;;;;;;;;;5105896;28;20055;-43
2024/04/07 07:48:48;;;;;;;11.15;6.43;;;;;;;;;;5106019;28;20028;-43
2024/04/07 07:51:17;;;;;;;10.95;6.18;;;;;;;;;;5106036;28;20312;-48
2024/04/07 07:53:44;;;;;;;11.00;6.45;;;;;;;;;;5105803;28;20035;-45
2024/04/07 07:56:10;;;;;;;11.65;6.32;;;;;;;;;;5105987;28;20043;-47
2024/04/07 07:58:37;;;;;;;9.73;6.25;;;;;;;;;;5105692;28;20020;-46
2024/04/07 08:01:04;;;;;;;12.98;6.22;;;;;;;;;;5105678;28;20335;-50
2024/04/07 08:03:31;;;;;;;10.15;6.25;;;;;;;;;;5105765;28;20093;-46
2024/04/07 08:05:59;;;;;;;12.13;6.13;;;;;;;;;;5105588;28;20204;-48
2024/04/07 08:08:26;;;;;;;10.63;6.40;;;;;;;;;;5105853;28;20342;-51
2024/04/07 08:10:52;;;;;;;11.68;6.28;;;;;;;;;;5105621;28;20031;-45
2024/04/07 08:13:19;;;;;;;12.15;6.07;;;;;;;;;;5105385;28;20027;-49
2024/04/07 08:15:46;;;;;;;8.48;6.22;;;;;;;;;;5105071;28;20020;-46
2024/04/07 08:18:12;;;;;;;10.57;6.30;;;;;;;;;;5104885;28;20094;-47
2024/04/07 08:20:40;;;;;;;11.50;6.18;;;;;;;;;;5105455;28;20238;-46
2024/04/07 08:23:06;;;;;;;10.38;6.28;;;;;;;;;;5105423;28;20015;-48
2024/04/07 08:25:33;;;;;;;8.80;6.20;;;;;;;;;;5105245;28;20027;-46
2024/04/07 08:28:00;;;;;;;12.27;6.63;;;;;;;;;;5105028;28;20087;-47
2024/04/07 08:30:27;;;;;;;12.88;6.65;;;;;;;;;;5105184;28;20028;-46
2024/04/07 08:32:54;;;;;;;12.00;6.68;;;;;;;;;;5105253;28;20039;-48
2024/04/07 08:35:20;;;;;;;12.90;7.00;;;;;;;;;;5104880;28;20037;-42
2024/04/07 08:37:47;;;;;;;13.20;6.93;;;;;;;;;;5104989;28;20024;-40
2024/04/07 08:40:13;;;;;;;12.70;7.05;;;;;;;;;;5105165;28;20016;-45
2024/04/07 08:42:40;;;;;;;11.90;6.65;;;;;;;;;;5105139;28;20039;-43
2024/04/07 08:45:08;;;;;;;10.85;6.55;;;;;;;;;;5104959;28;20012;-41
2024/04/07 08:47:36;;;;;;;12.18;7.07;;;;;;;;;;5104775;28;20048;-41
2024/04/07 08:50:03;;;;;;;14.55;7.20;;;;;;;;;;5104635;28;20028;-45
2024/04/07 08:52:30;;;;;;;14.35;7.53;;;;;;;;;;5105304;28;20129;-43
2024/04/07 08:54:58;;;;;;;15.50;7.57;;;;;;;;;;5104829;28;20346;-45
2024/04/07 08:57:24;;;;;;;13.65;7.60;;;;;;;;;;5104464;28;20103;-43
2024/04/07 08:59:52;;;;;;;15.45;7.82;;;;;;;;;;5104891;28;20062;-41
2024/04/07 09:02:19;;;;;;;14.02;7.07;;;;;;;;;;5105017;28;20028;-40
2024/04/07 09:04:46;;;;;;;16.48;8.05;;;;;;;;;;5104482;28;20028;-40
2024/04/07 09:07:13;;;;;;;13.60;7.35;;;;;;;;;;5104970;28;20203;-43
2024/04/07 09:09:39;;;;;;;15.18;7.32;;;;;;;;;;5104438;28;20024;-44
2024/04/07 09:12:10;;;;;;;11.75;7.25;;;;;;;;;;5104778;28;20023;-41
2024/04/07 09:14:39;;;;;;;11.90;7.03;;;;;;;;;;5104328;28;20324;-46
2024/04/07 09:17:09;;;;;;;14.40;7.53;;;;;;;;;;5104636;28;20092;-41
2024/04/07 09:19:36;;;;;;;15.20;7.60;;;;;;;;;;5104103;28;20024;-40
2024/04/07 09:22:03;;;;;;;13.98;7.38;;;;;;;;;;5104800;28;20088;-44
2024/04/07 09:24:30;;;;;;;14.00;7.55;;;;;;;;;;5104323;28;20020;-42
2024/04/07 09:27:00;;;;;;;16.00;7.65;;;;;;;;;;5104329;28;20028;-46
2024/04/07 09:29:34;;;;;;;13.65;7.38;;;;;;;;;;5104008;28;20024;-43
2024/04/07 09:32:01;;;;;;;15.18;7.05;;;;;;;;;;5104405;28;20027;-44
2024/04/07 09:34:32;;;;;;;15.23;7.47;;;;;;;;;;5104160;28;20055;-44
2024/04/07 09:37:01;;;;;;;16.20;7.68;;;;;;;;;;5104555;28;20032;-48
2024/04/07 09:39:27;;;;;;;15.55;8.23;;;;;;;;;;5103939;28;20060;-45
2024/04/07 09:41:57;;;;;;;14.02;7.80;;;;;;;;;;5104928;28;20031;-45
2024/04/07 09:44:25;;;;;;;14.30;7.47;;;;;;;;;;5104293;28;20020;-46
2024/04/07 09:46:54;;;;;;;13.90;8.07;;;;;;;;;;5103834;28;20232;-46
2024/04/07 09:49:23;;;;;;;12.38;7.68;;;;;;;;;;5103903;28;20055;-43
2024/04/07 09:51:54;;;;;;;21.17;9.25;;;;;;;;;;5104327;28;20055;-47
2024/04/07 09:54:55;;;;;;;15.57;8.70;;;;;;;;;;5103776;28;20046;-48
2024/04/07 09:57:21;;;;;;;12.98;7.60;;;;;;;;;;5103467;28;20058;-55
2024/04/07 09:59:47;;;;;;;14.48;8.93;;;;;;;;;;5103900;28;20040;-50
2024/04/07 10:02:15;;;;;;;14.60;7.82;;;;;;;;;;5104164;28;20012;-52
2024/04/07 10:04:42;;;;;;;16.38;8.55;;;;;;;;;;5103693;28;20075;-45
2024/04/07 10:07:10;;;;;;;19.02;8.43;;;;;;;;;;5104149;28;20058;-43
2024/04/07 10:09:37;;;;;;;17.27;8.75;;;;;;;;;;5103716;28;20065;-43
2024/04/07 10:12:04;;;;;;;15.68;7.55;;;;;;;;;;5104052;28;20031;-43
2024/04/07 10:14:40;;;;;;;12.15;8.18;;;;;;;;;;5103774;28;20032;-45
2024/04/07 10:17:10;;;;;;;12.93;7.65;;;;;;;;;;5104112;28;20024;-42
2024/04/07 10:19:43;;;;;;;14.35;7.50;;;;;;;;;;5103425;28;20028;-49
2024/04/07 10:22:10;;;;;;;12.65;8.30;;;;;;;;;;5104017;28;20020;-57
2024/04/07 10:24:37;;;;;;;15.60;8.13;;;;;;;;;;5103538;28;20031;-39
2024/04/07 10:27:08;;;;;;;17.02;8.40;;;;;;;;;;5103902;28;20016;-41
2024/04/07 10:29:35;;;;;;;10.80;7.40;;;;;;;;;;5103674;28;20393;-42
2024/04/07 10:32:03;;;;;;;18.10;8.32;;;;;;;;;;5103335;28;20061;-37
2024/04/07 10:34:29;;;;;;;15.93;7.70;;;;;;;;;;5103504;28;20036;-42
2024/04/07 10:36:57;;;;;;;13.18;8.05;;;;;;;;;;5103589;28;20027;-42
2024/04/07 10:39:25;;;;;;;17.17;8.68;;;;;;;;;;5103851;28;20016;-43
2024/04/07 10:41:52;;;;;;;23.38;8.07;;;;;;;;;;5107609;28;20016;-51
2024/04/07 10:44:19;;;;;;;15.70;8.52;;;;;;;;;;5107319;28;20385;-48
2024/04/07 10:46:46;;;;;;;13.80;8.45;;;;;;;;;;5107036;28;20048;-50
2024/04/07 10:49:13;;;;;;;16.00;8.48;;;;;;;;;;5107106;28;20035;-52
2024/04/07 10:51:40;;;;;;;14.60;7.88;;;;;;;;;;5107314;28;20095;-52
2024/04/07 10:54:10;;;;;;;17.85;8.93;;;;;;;;;;5107034;28;20262;-39
2024/04/07 10:56:36;;;;;;;13.95;8.57;;;;;;;;;;5107237;28;20032;-44
2024/04/07 10:59:03;;;;;;;20.60;10.45;;;;;;;;;;5107041;28;20020;-43
2024/04/07 11:01:30;;;;;;;20.85;9.68;;;;;;;;;;5107138;28;20083;-49
2024/04/07 11:03:57;;;;;;;16.85;9.13;;;;;;;;;;5107009;28;20028;-49
2024/04/07 11:06:24;;;;;;;14.50;9.02;;;;;;;;;;5107106;28;20016;-48
2024/04/07 11:08:51;;;;;;;17.00;8.48;;;;;;;;;;5106746;28;20028;-42
2024/04/07 11:11:22;;;;;;;12.30;8.70;;;;;;;;;;5106987;28;20335;-49
2024/04/07 11:13:49;;;;;;;13.40;8.60;;;;;;;;;;5106585;28;20087;-50
2024/04/07 11:16:15;;;;;;;18.65;8.05;;;;;;;;;;5106355;28;20020;-45
2024/04/07 11:18:42;;;;;;;14.80;8.70;;;;;;;;;;5106764;28;20024;-50
2024/04/07 11:21:10;;;;;;;16.75;8.73;;;;;;;;;;5106613;28;20020;-44
2024/04/07 11:23:40;;;;;;;20.17;9.13;;;;;;;;;;5106218;28;20028;-42
2024/04/07 11:26:07;;;;;;;17.17;9.38;;;;;;;;;;5106751;28;20062;-48
2024/04/07 11:28:33;;;;;;;16.95;9.15;;;;;;;;;;5106444;28;20028;-46
2024/04/07 11:31:01;;;;;;;18.50;9.00;;;;;;;;;;5106321;28;20020;-44
2024/04/07 11:33:28;;;;;;;23.58;9.48;;;;;;;;;;5106367;28;20077;-39
2024/04/07 11:35:55;;;;;;;18.17;10.20;;;;;;;;;;5106020;28;20016;-45
2024/04/07 11:38:21;;;;;;;16.90;10.60;;;;;;;;;;5105821;28;20020;-46
2024/04/07 11:40:48;;;;;;;23.17;10.77;;;;;;;;;;5106142;28;20016;-43
2024/04/07 11:43:16;;;;;;;22.35;11.23;;;;;;;;;;5106280;28;20063;-45
2024/04/07 11:45:42;;;;;;;22.42;10.82;;;;;;;;;;5105704;28;20023;-47
2024/04/07 11:48:09;;;;;;;16.70;10.80;;;;;;;;;;5106168;28;20032;-40
2024/04/07 11:50:36;;;;;;;17.13;10.77;;;;;;;;;;5105939;28;20300;-46
2024/04/07 11:53:02;;;;;;;18.80;11.13;;;;;;;;;;5105817;28;20283;-44
2024/04/07 11:55:32;;;;;;;17.88;10.55;;;;;;;;;;5105730;28;20100;-39
2024/04/07 11:57:59;;;;;;;18.50;11.25;;;;;;;;;;5105560;28;20028;-47
2024/04/07 12:00:26;;;;;;;23.45;9.88;;;;;;;;;;5105444;28;20016;-47
2024/04/07 12:02:52;;;;;;;19.25;10.00;;;;;;;;;;5105726;28;20020;-41
2024/04/07 12:05:19;;;;;;;19.67;9.30;;;;;;;;;;5105647;28;20023;-46
2024/04/07 12:07:46;;;;;;;16.85;9.68;;;;;;;;;;5105688;28;20211;-46
2024/04/07 12:10:12;;;;;;;16.60;8.85;;;;;;;;;;5105679;28;20048;-47
2024/04/07 12:12:39;;;;;;;16.83;8.55;;;;;;;;;;5105352;28;20375;-48
2024/04/07 12:15:06;;;;;;;15.93;9.05;;;;;;;;;;5105514;28;20024;-42
2024/04/07 12:17:33;;;;;;;16.80;8.73;;;;;;;;;;5105210;28;20079;-41
2024/04/07 12:19:59;;;;;;;17.48;9.00;;;;;;;;;;5105274;28;20024;-46
2024/04/07 12:22:34;;;;;;;16.40;8.70;;;;;;;;;;5105858;28;20024;-44
2024/04/07 12:25:01;;;;;;;16.92;8.73;;;;;;;;;;5105380;28;20079;-36
2024/04/07 12:27:27;;;;;;;16.48;8.43;;;;;;;;;;5105651;28;20020;-49
2024/04/07 12:29:54;;;;;;;11.88;8.48;;;;;;;;;;5105017;28;20048;-41
2024/04/07 12:32:20;;;;;;;14.40;8.60;;;;;;;;;;5103758;28;20016;-48
2024/04/07 12:34:47;;;;;;;17.30;9.50;;;;;;;;;;5102778;28;20070;-48
2024/04/07 12:37:15;;;;;;;15.32;8.40;;;;;;;;;;5103462;28;20023;-45
2024/04/07 12:39:41;;;;;;;26.88;17.67;;;;;;;;;;5103188;28;20096;-51
2024/04/07 12:42:08;;;;;;;30.50;26.67;;;;;;;;;;5103654;28;20187;-48
2024/04/07 12:44:35;;;;;;;48.20;42.67;;;;;;;;;;5103151;28;20070;-44
2024/04/07 12:47:01;;;;;;;48.92;43.85;;;;;;;;;;5103112;28;20046;-48
2024/04/07 12:49:28;;;;;;;37.30;32.95;;;;;;;;;;5103647;28;20019;-51
2024/04/07 12:51:54;;;;;;;34.63;28.85;;;;;;;;;;5105252;28;20028;-56
2024/04/07 12:54:21;;;;;;;36.10;28.30;;;;;;;;;;5104665;28;20028;-51
2024/04/07 12:56:48;;;;;;;28.42;23.38;;;;;;;;;;5105094;28;20086;-51
2024/04/07 12:59:14;;;;;;;26.73;20.85;;;;;;;;;;5104646;28;20227;-53
2024/04/07 13:01:41;;;;;;;26.05;19.85;;;;;;;;;;5105005;28;20091;-50
2024/04/07 13:04:07;;;;;;;23.63;17.73;;;;;;;;;;5104544;28;20020;-51
2024/04/07 13:06:34;;;;;;;21.73;17.65;;;;;;;;;;5104799;28;20322;-51
2024/04/07 13:09:01;;;;;;;21.73;16.70;;;;;;;;;;5104417;28;20040;-47
2024/04/07 13:11:27;;;;;;;20.02;14.40;;;;;;;;;;5104720;28;20020;-48
2024/04/07 13:13:54;;;;;;;20.05;15.15;;;;;;;;;;5104499;28;20031;-53
2024/04/07 13:16:20;;;;;;;20.23;14.43;;;;;;;;;;5104435;28;20222;-48
2024/04/07 13:18:47;;;;;;;20.70;12.60;;;;;;;;;;5104656;28;20031;-58
2024/04/07 13:21:14;;;;;;;19.45;13.00;;;;;;;;;;5104504;28;20406;-47
2024/04/07 13:23:40;;;;;;;23.15;11.93;;;;;;;;;;5104228;28;20035;-47
2024/04/07 13:26:07;;;;;;;20.00;11.07;;;;;;;;;;5104584;28;20030;-50
2024/04/07 13:28:33;;;;;;;17.88;10.70;;;;;;;;;;5104304;28;20145;-48
2024/04/07 13:31:00;;;;;;;14.43;10.63;;;;;;;;;;5104240;28;20039;-47
2024/04/07 13:33:26;;;;;;;14.40;10.10;;;;;;;;;;5104187;28;20066;-47
2024/04/07 13:35:53;;;;;;;16.33;9.40;;;;;;;;;;5104195;28;20016;-54
2024/04/07 13:38:20;;;;;;;12.10;8.32;;;;;;;;;;5103788;28;20028;-56
2024/04/07 13:40:46;;;;;;;19.92;8.57;;;;;;;;;;5104327;28;20020;-52
2024/04/07 13:43:13;;;;;;;16.35;8.93;;;;;;;;;;5104169;28;20024;-46
2024/04/07 13:45:39;;;;;;;11.98;7.70;;;;;;;;;;5103997;28;20016;-49
2024/04/07 13:48:06;;;;;;;18.85;8.38;;;;;;;;;;5103927;28;20349;-50
2024/04/07 13:50:33;;;;;;;11.90;8.02;;;;;;;;;;5104094;28;20034;-49
2024/04/07 13:52:59;;;;;;;15.43;8.30;;;;;;;;;;5104038;28;20028;-47
2024/04/07 13:55:26;;;;;;;12.40;7.82;;;;;;;;;;5103868;28;20024;-46
2024/04/07 13:57:53;;;;;;;11.85;8.38;;;;;;;;;;5103796;28;20099;-48
2024/04/07 14:00:20;;;;;;;13.35;8.13;;;;;;;;;;5103900;28;20028;-48
2024/04/07 14:02:47;;;;;;;12.93;7.50;;;;;;;;;;5103685;28;20030;-40
2024/04/07 14:05:13;;;;;;;16.35;8.15;;;;;;;;;;5103702;28;20020;-44
2024/04/07 14:07:40;;;;;;;16.02;7.97;;;;;;;;;;5103920;28;20036;-40
2024/04/07 14:10:07;;;;;;;13.93;7.28;;;;;;;;;;5103754;28;20019;-40
2024/04/07 14:12:35;;;;;;;16.25;8.15;;;;;;;;;;5104334;28;20038;-39
2024/04/07 14:15:01;;;;;;;17.48;7.85;;;;;;;;;;5106850;28;20038;-42
2024/04/07 14:17:28;;;;;;;12.25;7.35;;;;;;;;;;5108100;28;20039;-54
2024/04/07 14:19:54;;;;;;;14.55;7.43;;;;;;;;;;5107907;28;20271;-45
2024/04/07 14:22:21;;;;;;;15.73;7.78;;;;;;;;;;5108246;28;20042;-45
2024/04/07 14:24:47;;;;;;;17.63;8.50;;;;;;;;;;5107706;28;20024;-45
2024/04/07 14:27:14;;;;;;;15.65;7.35;;;;;;;;;;5108059;28;20375;-45
2024/04/07 14:29:40;;;;;;;10.65;7.57;;;;;;;;;;5107626;28;20327;-47